Howards Grove, Wisconsin
Current Conditions -  °F | °C
As of 3:53 PM on Monday 26 Jan 2015 (Local Time) from KSBM Reporting Station
Overcast Overcast  
Wind Chill: 16°   Ceiling: 5500
Heat Index: 26°   Visibility: 8mi
Dew Point: 18°   Wind: 10mph
Humidity: 71%   Direction: 170°S
Pressure: 29.85"   Gusts: NA
Location:  43.8288°N, 87.7756°W
Report Text: KSBM 262153Z AUTO 17009KT 8SM OVC055 M03/M08 A2985 RMK AO2 SNB06E21 SLP121 P0000 T10331078
Loading
Personal Weather Stations






























Interactive Weather Map New forecast layout! Learn more

10-Day Weather Forecast

Advertisements
Track Severe Weather on mobile